createdAt,value
2023-05-15T00:00:44.674Z,11.24
2023-05-15T00:01:39.760Z,11.22
2023-05-15T00:02:34.809Z,11.22
2023-05-15T00:03:30.580Z,11.21
2023-05-15T00:04:24.894Z,11.19
2023-05-15T00:05:19.878Z,11.20
2023-05-15T00:06:14.970Z,11.24
2023-05-15T00:07:09.992Z,11.24
2023-05-15T00:08:05.057Z,11.26
2023-05-15T00:09:00.367Z,11.28
2023-05-15T00:09:58.840Z,11.29
2023-05-15T00:11:01.467Z,11.28
2023-05-15T00:11:49.917Z,11.26
2023-05-15T00:12:43.984Z,11.25
2023-05-15T00:13:39.091Z,11.22
2023-05-15T00:14:34.355Z,11.20
2023-05-15T00:15:29.310Z,11.15
2023-05-15T00:16:24.514Z,11.12
2023-05-15T00:17:20.085Z,11.09
2023-05-15T00:18:15.347Z,11.10
2023-05-15T00:19:10.773Z,11.11
2023-05-15T00:20:06.015Z,11.09
2023-05-15T00:21:01.215Z,11.08
2023-05-15T00:21:56.589Z,11.09
2023-05-15T00:22:51.728Z,11.10
2023-05-15T00:23:47.106Z,11.05
2023-05-15T00:24:42.102Z,11.00
2023-05-15T00:25:37.224Z,11.01
2023-05-15T00:26:32.183Z,11.00
2023-05-15T00:27:27.420Z,11.00
2023-05-15T00:28:22.533Z,11.01
2023-05-15T00:29:17.560Z,11.02
2023-05-15T00:30:12.545Z,11.01
2023-05-15T00:31:07.683Z,11.03
2023-05-15T00:32:02.622Z,11.02
2023-05-15T00:32:57.743Z,11.02
2023-05-15T00:33:52.728Z,10.99
2023-05-15T00:34:47.905Z,10.98
2023-05-15T00:35:42.842Z,10.98
2023-05-15T00:36:37.874Z,10.93
2023-05-15T00:37:32.973Z,10.87
2023-05-15T00:38:28.091Z,10.80
2023-05-15T00:39:23.068Z,10.73
2023-05-15T00:40:18.924Z,10.68
2023-05-15T00:41:13.715Z,10.65
2023-05-15T00:42:08.335Z,10.63
2023-05-15T00:43:04.692Z,10.63
2023-05-15T00:43:59.938Z,10.64
2023-05-15T00:44:55.763Z,10.66
2023-05-15T00:45:51.010Z,10.68
2023-05-15T00:46:46.280Z,10.70
2023-05-15T00:47:42.202Z,10.72
2023-05-15T00:48:37.281Z,10.76
2023-05-15T00:49:33.216Z,10.80
2023-05-15T00:50:28.470Z,10.81
2023-05-15T00:51:23.740Z,10.82
2023-05-15T00:52:19.529Z,10.84
2023-05-15T00:53:14.780Z,10.88
2023-05-15T00:54:10.141Z,10.91
2023-05-15T00:55:06.247Z,10.94
2023-05-15T00:56:01.479Z,10.96
2023-05-15T00:56:58.104Z,10.96
2023-05-15T00:57:52.443Z,10.97
2023-05-15T00:58:47.867Z,10.98
2023-05-15T00:59:43.696Z,10.97
2023-05-15T01:00:38.900Z,10.95
2023-05-15T01:01:34.834Z,10.95
2023-05-15T01:02:29.987Z,10.94
2023-05-15T01:03:25.345Z,10.92
2023-05-15T01:04:21.052Z,10.92
2023-05-15T01:05:16.451Z,10.95
2023-05-15T01:06:11.455Z,10.99
2023-05-15T01:07:07.901Z,11.00
2023-05-15T01:08:03.192Z,11.02
2023-05-15T01:08:58.997Z,11.02
2023-05-15T01:09:54.251Z,11.00
2023-05-15T01:10:49.377Z,10.98
2023-05-15T01:11:45.197Z,10.97
2023-05-15T01:12:40.465Z,10.96
2023-05-15T01:13:36.312Z,10.95
2023-05-15T01:15:55.545Z,10.60
2023-05-15T01:16:50.416Z,10.79
2023-05-15T01:17:45.702Z,10.86
2023-05-15T01:18:41.004Z,10.88
2023-05-15T01:19:36.140Z,10.87
2023-05-15T01:20:31.404Z,10.84
2023-05-15T01:21:26.358Z,10.83
2023-05-15T01:22:21.594Z,10.86
2023-05-15T01:23:16.833Z,10.89
2023-05-15T01:24:12.074Z,10.91
2023-05-15T01:25:07.290Z,10.90
2023-05-15T01:26:02.655Z,10.91
2023-05-15T01:26:57.797Z,10.91
2023-05-15T01:27:53.008Z,10.90
2023-05-15T01:28:48.310Z,10.90
2023-05-15T01:29:43.510Z,10.89
2023-05-15T01:30:38.879Z,10.87
2023-05-15T01:31:33.995Z,10.86
2023-05-15T01:32:29.276Z,10.83
2023-05-15T01:33:24.405Z,10.80
2023-05-15T01:34:19.678Z,10.77
2023-05-15T01:35:15.064Z,10.76
2023-05-15T01:36:10.308Z,10.73
2023-05-15T01:37:05.404Z,10.70
2023-05-15T01:38:00.662Z,10.68
2023-05-15T01:38:55.795Z,10.68
2023-05-15T01:39:51.038Z,10.68
2023-05-15T01:40:46.459Z,10.68
2023-05-15T01:41:41.440Z,10.68
2023-05-15T01:42:36.645Z,10.69
2023-05-15T01:43:31.941Z,10.70
2023-05-15T01:44:27.028Z,10.71
2023-05-15T01:45:22.601Z,10.71
2023-05-15T01:46:17.593Z,10.72
2023-05-15T01:47:12.714Z,10.74
2023-05-15T01:48:07.987Z,10.75
2023-05-15T01:49:03.115Z,10.77
2023-05-15T01:49:58.316Z,10.79
2023-05-15T01:50:53.591Z,10.80
2023-05-15T01:51:48.716Z,10.80
2023-05-15T01:52:43.958Z,10.80
2023-05-15T01:53:39.233Z,10.82
2023-05-15T01:54:34.362Z,10.82
2023-05-15T01:55:29.755Z,10.82
2023-05-15T01:56:24.875Z,10.82
2023-05-15T01:57:19.956Z,10.81
2023-05-15T01:58:15.211Z,10.81
2023-05-15T01:59:10.455Z,10.80
2023-05-15T02:00:05.751Z,10.78
2023-05-15T02:01:00.862Z,10.77
2023-05-15T02:01:56.177Z,10.77
2023-05-15T02:02:51.420Z,10.76
2023-05-15T02:03:46.696Z,10.74
2023-05-15T02:04:41.790Z,10.74
2023-05-15T02:05:37.204Z,10.74
2023-05-15T02:06:32.404Z,10.72
2023-05-15T02:07:27.553Z,10.71
2023-05-15T02:08:22.623Z,10.71
2023-05-15T02:09:17.885Z,10.69
2023-05-15T02:10:13.103Z,10.68
2023-05-15T02:11:08.559Z,10.67
2023-05-15T02:12:03.508Z,10.66
2023-05-15T02:12:58.730Z,10.67
2023-05-15T02:13:53.944Z,10.67
2023-05-15T02:14:49.238Z,10.66
2023-05-15T02:15:44.448Z,10.64
2023-05-15T02:16:40.098Z,10.64
2023-05-15T02:17:34.935Z,10.63
2023-05-15T02:18:30.169Z,10.61
2023-05-15T02:19:25.242Z,10.59
2023-05-15T02:20:20.494Z,10.57
2023-05-15T02:21:15.709Z,10.57
2023-05-15T02:22:11.145Z,10.56
2023-05-15T02:23:06.089Z,10.55
2023-05-15T02:24:01.421Z,10.53
2023-05-15T02:24:56.508Z,10.51
2023-05-15T02:25:51.742Z,10.46
2023-05-15T02:26:47.263Z,10.43
2023-05-15T02:27:42.276Z,10.41
2023-05-15T02:28:37.495Z,10.39
2023-05-15T02:29:32.757Z,10.37
2023-05-15T02:30:27.963Z,10.36
2023-05-15T02:31:24.458Z,10.36
2023-05-15T02:32:18.614Z,10.34
2023-05-15T02:33:13.729Z,10.33
2023-05-15T02:34:08.942Z,10.33
2023-05-15T02:35:04.246Z,10.33
2023-05-15T02:35:59.434Z,10.35
2023-05-15T02:36:54.858Z,10.36
2023-05-15T02:37:49.821Z,10.35
2023-05-15T02:38:45.213Z,10.35
2023-05-15T02:39:40.172Z,10.35
2023-05-15T02:40:35.421Z,10.34
2023-05-15T02:41:30.617Z,10.33
2023-05-15T02:42:26.065Z,10.31
2023-05-15T02:43:21.045Z,10.26
2023-05-15T02:44:16.270Z,10.25
2023-05-15T02:45:11.524Z,10.24
2023-05-15T02:46:06.831Z,10.22
2023-05-15T02:47:02.052Z,10.18
2023-05-15T02:47:57.200Z,10.15
2023-05-15T02:48:52.443Z,10.12
2023-05-15T02:49:47.698Z,10.10
2023-05-15T02:50:42.978Z,10.09
2023-05-15T02:51:38.208Z,10.08
2023-05-15T02:52:33.622Z,10.08
2023-05-15T02:53:29.302Z,10.07
2023-05-15T02:54:23.933Z,10.05
2023-05-15T02:55:19.232Z,10.04
2023-05-15T02:56:14.435Z,10.02
2023-05-15T02:57:10.008Z,10.00
2023-05-15T02:58:04.814Z,9.98
2023-05-15T02:59:00.048Z,9.97
2023-05-15T02:59:55.263Z,9.95
2023-05-15T03:00:50.510Z,9.94
2023-05-15T03:01:45.601Z,9.92
2023-05-15T03:02:40.888Z,9.90
2023-05-15T03:03:35.743Z,9.88
2023-05-15T03:04:31.016Z,9.87
2023-05-15T03:05:26.432Z,9.85
2023-05-15T03:06:21.244Z,9.84
2023-05-15T03:07:16.461Z,9.84
2023-05-15T03:08:11.533Z,9.84
2023-05-15T03:09:06.702Z,9.87
2023-05-15T03:10:01.897Z,9.91
2023-05-15T03:10:57.044Z,9.93
2023-05-15T03:11:52.234Z,9.94
2023-05-15T03:12:47.619Z,9.94
2023-05-15T03:13:42.653Z,9.95
2023-05-15T03:14:37.792Z,9.93
2023-05-15T03:15:33.008Z,9.91
2023-05-15T03:16:28.217Z,9.85
2023-05-15T03:17:23.726Z,9.76
2023-05-15T03:18:18.816Z,9.70
2023-05-15T03:19:13.760Z,9.67
2023-05-15T03:20:08.772Z,9.62
2023-05-15T03:21:03.997Z,9.59
2023-05-15T03:21:59.207Z,9.55
2023-05-15T03:22:54.493Z,9.51
2023-05-15T03:23:49.543Z,9.50
2023-05-15T03:24:44.774Z,9.49
2023-05-15T03:25:40.042Z,9.50
2023-05-15T03:26:35.293Z,9.51
2023-05-15T03:27:30.828Z,9.55
2023-05-15T03:28:25.823Z,9.58
2023-05-15T03:29:21.016Z,9.60
2023-05-15T03:30:16.309Z,9.61
2023-05-15T03:31:11.631Z,9.59
2023-05-15T03:32:06.699Z,9.58
2023-05-15T03:33:02.107Z,9.56
2023-05-15T03:33:57.187Z,9.54
2023-05-15T03:34:52.410Z,9.53
2023-05-15T03:35:47.661Z,9.53
2023-05-15T03:36:42.873Z,9.53
2023-05-15T03:37:38.406Z,9.50
2023-05-15T03:38:33.349Z,9.48
2023-05-15T03:39:28.641Z,9.46
2023-05-15T03:40:23.787Z,9.43
2023-05-15T03:41:19.077Z,9.43
2023-05-15T03:42:14.506Z,9.44
2023-05-15T03:43:09.566Z,9.46
2023-05-15T03:44:04.844Z,9.48
2023-05-15T03:45:00.163Z,9.50
2023-05-15T03:45:55.273Z,9.53
2023-05-15T03:46:50.724Z,9.55
2023-05-15T03:47:46.286Z,9.57
2023-05-15T03:48:41.244Z,9.63
2023-05-15T03:49:36.567Z,9.70
2023-05-15T03:50:31.945Z,9.78
2023-05-15T03:51:27.262Z,9.82
2023-05-15T03:52:22.800Z,9.84
2023-05-15T03:53:17.900Z,9.87
2023-05-15T03:54:13.245Z,9.87
2023-05-15T03:55:08.430Z,9.88
2023-05-15T03:56:03.793Z,9.89
2023-05-15T03:56:59.107Z,9.89
2023-05-15T03:57:54.698Z,9.90
2023-05-15T03:58:49.774Z,9.89
2023-05-15T03:59:45.138Z,9.89
2023-05-15T04:00:40.345Z,9.88
2023-05-15T04:01:43.510Z,9.88
2023-05-15T04:02:31.951Z,9.87
2023-05-15T04:03:26.462Z,9.87
2023-05-15T04:04:21.505Z,9.89
2023-05-15T04:05:16.886Z,9.91
2023-05-15T04:06:12.149Z,9.93
2023-05-15T04:07:07.353Z,9.95
2023-05-15T04:08:03.037Z,9.96
2023-05-15T04:08:58.067Z,9.95
2023-05-15T04:09:53.419Z,9.96
2023-05-15T04:10:48.721Z,9.96
2023-05-15T04:11:43.929Z,9.95
2023-05-15T04:12:39.292Z,9.94
2023-05-15T04:13:34.584Z,9.94
2023-05-15T04:14:29.902Z,9.91
2023-05-15T04:15:25.290Z,9.89
2023-05-15T04:16:20.467Z,9.87
2023-05-15T04:17:15.686Z,9.87
2023-05-15T04:18:11.329Z,9.85
2023-05-15T04:19:06.338Z,9.83
2023-05-15T04:20:01.618Z,9.82
2023-05-15T04:20:56.840Z,9.81
2023-05-15T04:21:52.220Z,9.78
2023-05-15T04:22:47.525Z,9.78
2023-05-15T04:23:42.930Z,9.79
2023-05-15T04:24:38.104Z,9.80
2023-05-15T04:25:33.467Z,9.79
2023-05-15T04:26:28.789Z,9.79
2023-05-15T04:27:23.958Z,9.79
2023-05-15T04:28:19.621Z,9.79
2023-05-15T04:29:14.608Z,9.79
2023-05-15T04:30:09.977Z,9.78
2023-05-15T04:31:05.179Z,9.79
2023-05-15T04:32:00.533Z,9.81
2023-05-15T04:32:56.783Z,9.83
2023-05-15T04:33:51.458Z,9.86
2023-05-15T04:34:46.563Z,9.86
2023-05-15T04:35:41.682Z,9.86
2023-05-15T04:36:37.122Z,9.88
2023-05-15T04:37:32.362Z,9.91
2023-05-15T04:38:28.045Z,9.95
2023-05-15T04:39:23.379Z,9.96
2023-05-15T04:40:18.554Z,9.97
2023-05-15T04:41:13.889Z,9.97
2023-05-15T04:42:09.364Z,9.99
2023-05-15T04:43:04.751Z,10.02
2023-05-15T04:44:00.394Z,10.04
2023-05-15T04:44:55.564Z,10.07
2023-05-15T04:45:51.077Z,10.09
2023-05-15T04:46:46.437Z,10.12
2023-05-15T04:47:41.882Z,10.11
2023-05-15T04:48:37.387Z,10.08
2023-05-15T04:49:34.341Z,10.06
2023-05-15T04:50:29.659Z,10.06
2023-05-15T04:51:25.194Z,10.04
2023-05-15T04:52:20.481Z,10.03
2023-05-15T04:53:16.013Z,10.02
2023-05-15T04:54:11.450Z,10.05
2023-05-15T04:55:06.888Z,10.07
2023-05-15T04:56:02.248Z,10.09
2023-05-15T04:56:57.670Z,10.08
2023-05-15T04:57:53.040Z,10.10
2023-05-15T04:58:48.449Z,10.15
2023-05-15T04:59:43.828Z,10.18
2023-05-15T05:00:39.426Z,10.24
2023-05-15T05:01:34.836Z,10.30
2023-05-15T05:02:34.387Z,10.33
2023-05-15T05:03:29.661Z,10.35
2023-05-15T05:04:25.073Z,10.39
2023-05-15T05:05:20.639Z,10.42
2023-05-15T05:06:16.066Z,10.45
2023-05-15T05:07:11.538Z,10.49
2023-05-15T05:08:06.921Z,10.52
2023-05-15T05:09:02.303Z,10.53
2023-05-15T05:09:57.702Z,10.53
2023-05-15T05:10:53.312Z,10.57
2023-05-15T05:11:48.632Z,10.62
2023-05-15T05:12:44.126Z,10.65
2023-05-15T05:13:39.577Z,10.68
2023-05-15T05:14:34.927Z,10.71
2023-05-15T05:15:30.644Z,10.74
2023-05-15T05:16:25.519Z,10.73
2023-05-15T05:17:20.612Z,10.73
2023-05-15T05:18:15.598Z,10.75
2023-05-15T05:19:10.867Z,10.75
2023-05-15T05:20:05.749Z,10.75
2023-05-15T05:21:01.120Z,10.75
2023-05-15T05:21:55.918Z,10.77
2023-05-15T05:22:50.910Z,10.80
2023-05-15T05:23:47.946Z,10.83
2023-05-15T05:24:43.044Z,10.85
2023-05-15T05:25:38.101Z,10.87
2023-05-15T05:26:33.267Z,10.89
2023-05-15T05:27:28.152Z,10.92
2023-05-15T05:28:23.309Z,10.93
2023-05-15T05:29:18.371Z,11.03
2023-05-15T05:30:13.397Z,11.05
2023-05-15T05:31:08.643Z,11.04
2023-05-15T05:32:03.487Z,11.02
2023-05-15T05:32:59.869Z,11.01
2023-05-15T05:33:55.205Z,11.03
2023-05-15T05:34:51.110Z,11.04
2023-05-15T05:35:46.555Z,11.06
2023-05-15T05:36:42.117Z,11.07
2023-05-15T05:37:39.503Z,11.07
2023-05-15T05:38:33.206Z,11.07
2023-05-15T05:39:28.871Z,11.11
2023-05-15T05:40:24.408Z,11.11
2023-05-15T05:41:19.916Z,11.09
2023-05-15T05:42:15.814Z,11.07
2023-05-15T05:43:11.245Z,11.07
2023-05-15T05:44:06.706Z,11.08
2023-05-15T05:45:02.980Z,11.10
2023-05-15T05:45:58.400Z,11.11
2023-05-15T05:46:54.307Z,11.12
2023-05-15T05:47:49.632Z,11.17
2023-05-15T05:48:45.109Z,11.20
2023-05-15T05:49:40.869Z,11.23
2023-05-15T05:50:36.220Z,11.29
2023-05-15T05:51:32.243Z,11.40
2023-05-15T05:52:27.370Z,11.47
2023-05-15T05:53:23.009Z,11.52
2023-05-15T05:54:18.894Z,11.55
2023-05-15T05:55:14.292Z,11.61
2023-05-15T05:56:09.935Z,11.66
2023-05-15T05:57:06.045Z,11.71
2023-05-15T05:58:02.234Z,11.75
2023-05-15T05:58:57.241Z,11.78
2023-05-15T05:59:52.757Z,11.79
2023-05-15T06:00:48.229Z,11.76
2023-05-15T06:01:44.197Z,11.72
2023-05-15T06:02:39.585Z,11.74
2023-05-15T06:03:35.383Z,11.79
2023-05-15T06:04:30.607Z,11.81
2023-05-15T06:05:26.267Z,11.86
2023-05-15T06:06:21.810Z,11.88
2023-05-15T06:07:17.135Z,11.94
2023-05-15T06:08:12.867Z,12.01
2023-05-15T06:09:08.739Z,12.05
2023-05-15T06:10:04.291Z,12.04
2023-05-15T06:11:00.051Z,12.00
2023-05-15T06:11:55.695Z,12.04
2023-05-15T06:12:51.033Z,12.06
2023-05-15T06:13:46.693Z,12.10
2023-05-15T06:14:42.013Z,12.20
2023-05-15T06:15:37.804Z,12.26
2023-05-15T06:16:34.161Z,12.29
2023-05-15T06:17:28.735Z,12.32
2023-05-15T06:18:24.344Z,12.40
2023-05-15T06:19:19.916Z,12.49
2023-05-15T06:20:15.269Z,12.56
2023-05-15T06:21:14.478Z,12.66
2023-05-15T06:22:09.660Z,12.74
2023-05-15T06:23:05.982Z,12.79
2023-05-15T06:24:00.778Z,12.83
2023-05-15T06:24:56.128Z,12.90
2023-05-15T06:25:51.492Z,12.94
2023-05-15T06:26:48.343Z,12.97
2023-05-15T06:27:43.265Z,13.03
2023-05-15T06:28:39.044Z,13.08
2023-05-15T06:29:34.369Z,13.08
2023-05-15T06:30:29.757Z,13.09
2023-05-15T06:31:25.801Z,13.13
2023-05-15T06:32:21.062Z,13.15
2023-05-15T06:33:16.809Z,13.22
2023-05-15T06:34:12.204Z,13.35
2023-05-15T06:35:07.629Z,13.53
2023-05-15T06:36:03.619Z,13.68
2023-05-15T06:36:58.904Z,13.80
2023-05-15T06:37:54.939Z,13.91
2023-05-15T06:38:49.692Z,14.01
2023-05-15T06:39:45.179Z,14.09
2023-05-15T06:40:41.512Z,14.19
2023-05-15T06:41:36.779Z,14.23
2023-05-15T06:42:32.326Z,14.26
2023-05-15T06:43:27.994Z,14.41
2023-05-15T06:44:23.757Z,14.59
2023-05-15T06:45:19.060Z,14.65
2023-05-15T06:46:14.631Z,14.72
2023-05-15T06:47:09.736Z,14.83
2023-05-15T06:48:04.615Z,14.92
2023-05-15T06:48:59.604Z,15.01
2023-05-15T06:49:54.593Z,15.12
2023-05-15T06:50:49.749Z,15.17
2023-05-15T06:51:44.741Z,15.23
2023-05-15T06:52:39.764Z,15.29
2023-05-15T06:53:34.732Z,15.43
2023-05-15T06:54:29.875Z,15.46
2023-05-15T06:55:25.047Z,15.57
2023-05-15T06:56:19.997Z,15.68
2023-05-15T06:57:14.933Z,15.69
2023-05-15T06:58:10.199Z,15.67
2023-05-15T06:59:05.199Z,15.60
2023-05-15T07:00:00.329Z,15.59
2023-05-15T07:00:56.499Z,15.55
2023-05-15T07:01:50.605Z,15.47
2023-05-15T07:02:45.621Z,15.49
2023-05-15T07:03:40.710Z,15.58
2023-05-15T07:04:35.741Z,15.67
2023-05-15T07:05:30.993Z,15.79
2023-05-15T07:06:26.632Z,15.94
2023-05-15T07:07:22.087Z,16.02
2023-05-15T07:08:17.488Z,16.12
2023-05-15T07:09:12.908Z,16.19
2023-05-15T07:10:08.257Z,16.26
2023-05-15T07:11:03.992Z,16.25
2023-05-15T07:11:59.215Z,16.32
2023-05-15T07:12:54.856Z,16.35
2023-05-15T07:13:50.794Z,16.44
2023-05-15T07:14:49.561Z,16.55
2023-05-15T07:17:08.632Z,16.39
2023-05-15T07:18:03.735Z,16.54
2023-05-15T07:18:59.139Z,16.64
2023-05-15T07:19:54.509Z,16.63
2023-05-15T07:20:50.020Z,16.69
2023-05-15T07:21:45.771Z,16.71
2023-05-15T07:22:51.962Z,16.77
2023-05-15T07:23:37.277Z,16.88
2023-05-15T07:24:31.747Z,17.04
2023-05-15T07:25:27.363Z,17.10
2023-05-15T07:26:34.295Z,17.14
2023-05-15T07:27:18.958Z,17.06
2023-05-15T07:28:13.397Z,17.03
2023-05-15T07:29:09.884Z,16.99
2023-05-15T07:30:04.202Z,16.88
2023-05-15T07:31:01.006Z,16.88
2023-05-15T07:31:55.364Z,16.76
2023-05-15T07:32:50.589Z,16.66
2023-05-15T07:33:46.154Z,16.58
2023-05-15T07:34:41.612Z,16.70
2023-05-15T07:35:37.079Z,16.81
2023-05-15T07:36:32.541Z,16.95
2023-05-15T07:37:28.024Z,16.87
2023-05-15T07:38:23.678Z,16.80
2023-05-15T07:39:19.012Z,16.73
2023-05-15T07:40:14.199Z,16.80
2023-05-15T07:41:09.657Z,16.73
2023-05-15T07:42:05.122Z,16.67
2023-05-15T07:43:01.106Z,16.57
2023-05-15T07:43:55.957Z,16.38
2023-05-15T07:44:51.472Z,16.27
2023-05-15T07:45:46.961Z,16.21
2023-05-15T07:46:42.548Z,16.15
2023-05-15T07:47:37.782Z,16.08
2023-05-15T07:48:33.330Z,16.00
2023-05-15T07:49:28.720Z,15.94
2023-05-15T07:50:24.919Z,15.85
2023-05-15T07:51:19.552Z,15.86
2023-05-15T07:52:15.017Z,16.05
2023-05-15T07:53:10.444Z,16.30
2023-05-15T07:54:05.918Z,16.48
2023-05-15T07:55:01.506Z,16.75
2023-05-15T07:55:57.066Z,16.91
2023-05-15T07:56:52.338Z,17.10
2023-05-15T07:57:53.589Z,17.28
2023-05-15T07:58:44.078Z,17.27
2023-05-15T07:59:38.511Z,17.26
2023-05-15T08:00:34.110Z,17.32
2023-05-15T08:01:30.738Z,17.48
2023-05-15T08:02:25.847Z,17.60
2023-05-15T08:03:20.721Z,17.75
2023-05-15T08:04:16.082Z,17.90
2023-05-15T08:05:11.522Z,18.01
2023-05-15T08:06:06.997Z,18.13
2023-05-15T08:07:02.987Z,18.27
2023-05-15T08:07:57.994Z,18.34
2023-05-15T08:08:53.395Z,18.45
2023-05-15T08:09:48.878Z,18.58
2023-05-15T08:10:44.253Z,18.61
2023-05-15T08:11:39.623Z,18.65
2023-05-15T08:12:35.146Z,18.69
2023-05-15T08:13:30.509Z,18.84
2023-05-15T08:14:26.069Z,18.86
2023-05-15T08:15:21.465Z,18.76
2023-05-15T08:16:16.894Z,18.53
2023-05-15T08:17:12.332Z,18.53
2023-05-15T08:18:07.770Z,18.47
2023-05-15T08:19:03.351Z,18.48
2023-05-15T08:19:58.591Z,18.49
2023-05-15T08:20:54.266Z,18.41
2023-05-15T08:21:49.708Z,18.30
2023-05-15T08:22:44.930Z,18.23
2023-05-15T08:23:40.432Z,18.12
2023-05-15T08:24:35.884Z,18.07
2023-05-15T08:25:31.397Z,18.09
2023-05-15T08:26:27.015Z,18.13
2023-05-15T08:27:22.374Z,18.09
2023-05-15T08:28:17.681Z,18.05
2023-05-15T08:29:13.054Z,17.99
2023-05-15T08:30:08.508Z,18.00
2023-05-15T08:31:04.073Z,18.13
2023-05-15T08:31:59.595Z,18.15
2023-05-15T08:32:55.001Z,18.39
2023-05-15T08:33:50.391Z,18.54
2023-05-15T08:34:45.890Z,18.70
2023-05-15T08:35:41.462Z,18.82
2023-05-15T08:36:38.445Z,18.99
2023-05-15T08:37:32.385Z,19.08
2023-05-15T08:38:27.889Z,18.95
2023-05-15T08:39:23.536Z,18.99
2023-05-15T08:40:23.335Z,19.04
2023-05-15T08:41:15.269Z,19.03
2023-05-15T08:42:09.818Z,19.11
2023-05-15T08:43:05.278Z,19.09
2023-05-15T08:44:00.695Z,19.12
2023-05-15T08:44:56.031Z,19.18
2023-05-15T08:45:51.445Z,19.17
2023-05-15T08:46:46.902Z,19.14
2023-05-15T08:47:42.430Z,19.17
2023-05-15T08:48:37.802Z,19.35
2023-05-15T08:49:33.284Z,19.38
2023-05-15T08:50:28.773Z,19.56
2023-05-15T08:51:24.136Z,19.63
2023-05-15T08:52:19.530Z,19.69
2023-05-15T08:53:15.869Z,19.84
2023-05-15T08:54:10.392Z,19.97
2023-05-15T08:55:05.755Z,19.94
2023-05-15T08:56:01.235Z,19.82
2023-05-15T08:56:56.682Z,19.58
2023-05-15T08:57:52.090Z,19.34
2023-05-15T08:58:47.551Z,19.13
2023-05-15T08:59:42.970Z,18.93
2023-05-15T09:00:38.407Z,18.66
2023-05-15T09:01:34.087Z,18.44
2023-05-15T09:02:29.398Z,18.23
2023-05-15T09:03:24.945Z,18.19
2023-05-15T09:04:20.172Z,18.30
2023-05-15T09:05:15.596Z,18.23
2023-05-15T09:06:11.072Z,18.16
2023-05-15T09:07:06.371Z,18.19
2023-05-15T09:08:03.637Z,18.37
2023-05-15T09:08:57.364Z,18.51
2023-05-15T09:09:52.704Z,18.73
2023-05-15T09:10:48.201Z,18.87
2023-05-15T09:11:43.610Z,19.02
2023-05-15T09:12:39.138Z,19.18
2023-05-15T09:13:34.666Z,19.32
2023-05-15T09:14:30.002Z,19.56
2023-05-15T09:15:25.909Z,19.82
2023-05-15T09:16:20.848Z,19.91
2023-05-15T09:17:16.310Z,20.15
2023-05-15T09:18:11.792Z,20.43
2023-05-15T09:19:07.363Z,20.43
2023-05-15T09:20:02.697Z,20.24
2023-05-15T09:20:58.360Z,20.05
2023-05-15T09:21:53.867Z,20.02
2023-05-15T09:22:49.217Z,19.84
2023-05-15T09:23:44.703Z,19.84
2023-05-15T09:24:40.112Z,19.81
2023-05-15T09:25:35.438Z,19.90
2023-05-15T09:26:31.358Z,20.06
2023-05-15T09:27:26.644Z,20.18
2023-05-15T09:28:22.118Z,20.27
2023-05-15T09:29:18.823Z,20.46
2023-05-15T09:30:12.999Z,20.62
2023-05-15T09:31:08.408Z,20.43
2023-05-15T09:32:03.722Z,20.11
2023-05-15T09:32:59.116Z,19.76
2023-05-15T09:33:54.563Z,19.41
2023-05-15T09:34:50.083Z,19.28
2023-05-15T09:35:45.883Z,19.42
2023-05-15T09:36:41.242Z,19.50
2023-05-15T09:37:36.741Z,19.45
2023-05-15T09:38:32.083Z,19.74
2023-05-15T09:39:27.573Z,20.04
2023-05-15T09:40:22.918Z,20.03
2023-05-15T09:41:18.443Z,19.90
2023-05-15T09:42:13.904Z,19.67
2023-05-15T09:43:09.185Z,19.78
2023-05-15T09:44:04.757Z,19.90
2023-05-15T09:45:00.301Z,20.00
2023-05-15T09:45:55.813Z,19.91
2023-05-15T09:46:51.442Z,19.69
2023-05-15T09:47:47.120Z,19.58
2023-05-15T09:48:42.398Z,19.73
2023-05-15T09:49:37.757Z,19.96
2023-05-15T09:50:33.320Z,20.09
2023-05-15T09:51:28.666Z,20.01
2023-05-15T09:52:24.074Z,19.91
2023-05-15T09:53:21.416Z,20.03
2023-05-15T09:54:15.035Z,20.21
2023-05-15T09:55:10.475Z,20.43
2023-05-15T09:56:05.909Z,20.67
2023-05-15T09:57:01.214Z,20.92
2023-05-15T09:57:56.790Z,21.15
2023-05-15T09:58:52.227Z,21.37
2023-05-15T09:59:47.715Z,21.40
2023-05-15T10:00:47.879Z,21.31
2023-05-15T10:01:39.750Z,21.41
2023-05-15T10:02:34.123Z,21.32
2023-05-15T10:03:29.677Z,20.97
2023-05-15T10:04:25.067Z,20.54
2023-05-15T10:05:28.642Z,20.29
2023-05-15T10:06:17.090Z,19.99
2023-05-15T10:07:11.245Z,19.77
2023-05-15T10:08:06.622Z,19.54
2023-05-15T10:09:02.016Z,19.38
2023-05-15T10:09:57.382Z,19.18
2023-05-15T10:10:53.116Z,18.97
2023-05-15T10:11:48.420Z,18.80
2023-05-15T10:12:43.869Z,18.63
2023-05-15T10:13:39.321Z,18.53
2023-05-15T10:14:34.965Z,18.45
2023-05-15T10:15:30.294Z,18.39
2023-05-15T10:16:25.841Z,18.34
2023-05-15T10:17:21.222Z,18.34
2023-05-15T10:18:16.624Z,18.32
2023-05-15T10:19:12.084Z,18.33
2023-05-15T10:20:07.539Z,18.30
2023-05-15T10:21:03.118Z,18.30
2023-05-15T10:21:58.422Z,18.36
2023-05-15T10:22:53.893Z,18.28
2023-05-15T10:23:49.320Z,18.25
2023-05-15T10:24:44.878Z,18.25
2023-05-15T10:25:40.268Z,18.27
2023-05-15T10:26:35.856Z,18.22
2023-05-15T10:27:31.242Z,18.15
2023-05-15T10:28:26.648Z,18.12
2023-05-15T10:29:22.109Z,18.08
2023-05-15T10:30:17.525Z,18.01
2023-05-15T10:31:13.453Z,18.02
2023-05-15T10:32:08.778Z,18.03
2023-05-15T10:33:04.253Z,18.01
2023-05-15T10:33:59.692Z,17.87
2023-05-15T10:34:55.104Z,17.72
2023-05-15T10:35:50.675Z,17.65
2023-05-15T10:36:45.978Z,17.65
2023-05-15T10:37:41.357Z,17.76
2023-05-15T10:38:36.717Z,18.13
2023-05-15T10:39:32.256Z,18.49
2023-05-15T10:40:27.800Z,18.82
2023-05-15T10:41:23.269Z,19.07
2023-05-15T10:42:18.710Z,19.16
2023-05-15T10:43:14.231Z,19.35
2023-05-15T10:44:09.770Z,19.43
2023-05-15T10:45:05.228Z,19.52
2023-05-15T10:46:00.773Z,19.63
2023-05-15T10:46:56.269Z,19.68
2023-05-15T10:47:51.727Z,19.41
2023-05-15T10:48:47.010Z,19.47
2023-05-15T10:49:42.333Z,19.50
2023-05-15T10:50:37.957Z,19.52
2023-05-15T10:51:33.377Z,19.13
2023-05-15T10:52:28.820Z,18.88
2023-05-15T10:53:24.210Z,18.51
2023-05-15T10:54:20.013Z,18.27
2023-05-15T10:55:15.139Z,18.32
2023-05-15T10:56:10.608Z,18.34
2023-05-15T10:57:06.149Z,18.11
2023-05-15T10:58:01.574Z,18.02
2023-05-15T10:58:57.146Z,17.72
2023-05-15T10:59:52.493Z,17.60
2023-05-15T11:00:48.026Z,17.61
2023-05-15T11:01:43.651Z,17.53
2023-05-15T11:02:39.320Z,17.39
2023-05-15T11:03:44.875Z,17.35
2023-05-15T11:04:31.202Z,17.72
2023-05-15T11:05:25.729Z,18.16
2023-05-15T11:06:21.304Z,18.50
2023-05-15T11:07:16.731Z,18.74
2023-05-15T11:08:12.163Z,18.91
2023-05-15T11:09:07.795Z,18.75
2023-05-15T11:10:04.283Z,18.52
2023-05-15T11:10:58.486Z,18.25
2023-05-15T11:11:54.342Z,17.98
2023-05-15T11:12:49.640Z,17.65
2023-05-15T11:13:44.906Z,17.49
2023-05-15T11:14:40.375Z,17.46
2023-05-15T11:15:35.844Z,17.33
2023-05-15T11:16:31.317Z,17.32
2023-05-15T11:17:26.757Z,17.35
2023-05-15T11:18:22.468Z,17.40
2023-05-15T11:19:17.908Z,17.36
2023-05-15T11:20:13.781Z,17.36
2023-05-15T11:21:08.896Z,17.36
2023-05-15T11:22:04.353Z,17.41
2023-05-15T11:22:59.782Z,17.40
2023-05-15T11:23:55.373Z,17.11
2023-05-15T11:24:50.798Z,17.02
2023-05-15T11:25:46.228Z,16.97
2023-05-15T11:26:41.765Z,16.99
2023-05-15T11:27:37.092Z,16.99
2023-05-15T11:28:32.449Z,17.03
2023-05-15T11:29:27.954Z,17.13
2023-05-15T11:30:23.653Z,17.17
2023-05-15T11:31:18.897Z,17.40
2023-05-15T11:32:14.385Z,17.55
2023-05-15T11:33:09.937Z,17.76
2023-05-15T11:34:05.331Z,17.97
2023-05-15T11:35:00.842Z,18.18
2023-05-15T11:35:57.156Z,18.39
2023-05-15T11:36:51.982Z,18.60
2023-05-15T11:37:47.543Z,18.62
2023-05-15T11:38:42.786Z,18.61
2023-05-15T11:39:38.334Z,18.51
2023-05-15T11:40:33.798Z,18.43
2023-05-15T11:41:29.088Z,18.43
2023-05-15T11:42:24.596Z,18.41
2023-05-15T11:43:20.008Z,18.35
2023-05-15T11:44:15.485Z,18.21
2023-05-15T11:45:10.944Z,18.37
2023-05-15T11:46:06.513Z,18.52
2023-05-15T11:47:02.076Z,18.77
2023-05-15T11:47:57.724Z,19.02
2023-05-15T11:48:52.930Z,19.33
2023-05-15T11:49:48.602Z,19.52
2023-05-15T11:50:43.879Z,19.65
2023-05-15T11:51:39.364Z,19.56
2023-05-15T11:52:35.017Z,19.01
2023-05-15T11:53:30.748Z,18.77
2023-05-15T11:54:25.874Z,18.63
2023-05-15T11:55:21.617Z,18.46
2023-05-15T11:56:17.095Z,18.27
2023-05-15T11:57:12.378Z,18.16
2023-05-15T11:58:07.908Z,18.01
2023-05-15T11:59:03.282Z,17.86
2023-05-15T11:59:58.482Z,17.80